createdAt,value
2022-11-27T00:01:21.884Z,92.95
2022-11-27T00:03:49.668Z,92.97
2022-11-27T00:06:19.605Z,92.94
2022-11-27T00:08:46.993Z,93.14
2022-11-27T00:11:17.184Z,93.54
2022-11-27T00:13:45.014Z,93.64
2022-11-27T00:16:13.620Z,93.93
2022-11-27T00:18:41.376Z,94.29
2022-11-27T00:21:14.784Z,94.96
2022-11-27T00:23:42.713Z,94.83
2022-11-27T00:26:10.153Z,95.03
2022-11-27T00:28:38.255Z,95.48
2022-11-27T00:31:14.682Z,95.50
2022-11-27T00:33:41.616Z,95.62
2022-11-27T00:36:09.455Z,95.03
2022-11-27T00:38:39.056Z,95.30
2022-11-27T00:41:11.916Z,95.40
2022-11-27T00:43:44.591Z,95.68
2022-11-27T00:46:16.314Z,95.06
2022-11-27T00:48:43.797Z,95.02
2022-11-27T00:51:14.530Z,94.97
2022-11-27T00:53:42.529Z,94.78
2022-11-27T00:56:12.779Z,94.31
2022-11-27T00:58:39.811Z,94.53
2022-11-27T01:01:08.132Z,94.54
2022-11-27T01:03:35.494Z,94.17
2022-11-27T01:06:04.964Z,94.11
2022-11-27T01:08:33.082Z,93.90
2022-11-27T01:11:00.800Z,93.69
2022-11-27T01:13:35.078Z,93.66
2022-11-27T01:16:06.351Z,93.41
2022-11-27T01:18:35.892Z,94.01
2022-11-27T01:21:04.473Z,93.93
2022-11-27T01:23:31.834Z,93.24
2022-11-27T01:26:01.765Z,93.67
2022-11-27T01:28:28.955Z,93.86
2022-11-27T01:30:55.760Z,93.61
2022-11-27T01:33:23.216Z,93.62
2022-11-27T01:35:57.353Z,91.49
2022-11-27T01:38:25.315Z,92.82
2022-11-27T01:41:02.350Z,93.09
2022-11-27T01:43:59.540Z,94.04
2022-11-27T01:46:26.244Z,93.99
2022-11-27T01:48:55.992Z,93.77
2022-11-27T01:51:23.276Z,94.15
2022-11-27T01:53:52.607Z,94.32
2022-11-27T01:56:21.187Z,93.93
2022-11-27T01:58:49.139Z,94.36
2022-11-27T02:01:16.162Z,94.40
2022-11-27T02:03:43.240Z,94.32
2022-11-27T02:06:13.959Z,94.55
2022-11-27T02:08:42.487Z,94.56
2022-11-27T02:11:21.972Z,94.19
2022-11-27T02:13:51.517Z,94.54
2022-11-27T02:16:39.432Z,94.28
2022-11-27T02:19:24.666Z,94.93
2022-11-27T02:22:09.917Z,94.72
2022-11-27T02:25:05.983Z,95.02
2022-11-27T02:27:48.525Z,95.13
2022-11-27T02:30:15.970Z,95.28
2022-11-27T02:32:54.833Z,96.00
2022-11-27T02:35:50.043Z,95.79
2022-11-27T02:38:22.895Z,95.74
2022-11-27T02:40:56.105Z,96.25
2022-11-27T02:43:49.494Z,95.51
2022-11-27T02:46:19.785Z,95.97
2022-11-27T02:48:58.826Z,94.44
2022-11-27T02:51:30.539Z,93.78
2022-11-27T02:54:02.587Z,92.10
2022-11-27T02:56:32.616Z,91.98
2022-11-27T02:59:03.517Z,92.15
2022-11-27T03:01:36.499Z,92.38
2022-11-27T03:04:08.601Z,91.08
2022-11-27T03:06:54.271Z,91.49
2022-11-27T03:09:29.366Z,91.01
2022-11-27T03:11:56.538Z,91.43
2022-11-27T03:14:24.404Z,91.82
2022-11-27T03:17:02.709Z,91.73
2022-11-27T03:19:38.322Z,91.16
2022-11-27T03:22:05.515Z,91.13
2022-11-27T03:27:03.029Z,91.45
2022-11-27T03:29:44.510Z,92.58
2022-11-27T03:32:11.679Z,91.52
2022-11-27T03:34:40.026Z,91.57
2022-11-27T03:37:07.241Z,92.27
2022-11-27T03:39:34.320Z,91.83
2022-11-27T03:42:16.432Z,92.24
2022-11-27T03:45:07.185Z,93.02
2022-11-27T03:47:52.889Z,91.47
2022-11-27T03:50:54.527Z,92.34
2022-11-27T03:53:41.775Z,92.09
2022-11-27T03:56:19.346Z,91.70
2022-11-27T03:59:02.859Z,92.29
2022-11-27T04:01:31.209Z,91.59
2022-11-27T04:03:58.322Z,91.50
2022-11-27T04:06:25.146Z,92.19
2022-11-27T04:08:52.533Z,91.32
2022-11-27T04:11:19.336Z,91.34
2022-11-27T04:13:46.134Z,91.78
2022-11-27T04:16:13.130Z,91.49
2022-11-27T04:18:39.949Z,92.09
2022-11-27T04:21:06.688Z,91.68
2022-11-27T04:23:33.528Z,92.32
2022-11-27T04:26:00.286Z,92.81
2022-11-27T04:28:27.062Z,92.48
2022-11-27T04:30:54.459Z,92.61
2022-11-27T04:33:22.224Z,93.35
2022-11-27T04:35:50.659Z,92.07
2022-11-27T04:38:18.783Z,92.51
2022-11-27T04:40:45.810Z,91.94
2022-11-27T04:43:12.922Z,93.21
2022-11-27T04:45:40.007Z,92.76
2022-11-27T04:48:06.921Z,92.30
2022-11-27T04:50:33.839Z,92.55
2022-11-27T04:53:02.011Z,92.08
2022-11-27T04:55:28.980Z,93.03
2022-11-27T04:57:55.677Z,94.32
2022-11-27T05:00:22.554Z,94.00
2022-11-27T05:02:49.358Z,92.82
2022-11-27T05:05:16.402Z,92.91
2022-11-27T05:07:43.874Z,93.25
2022-11-27T05:10:10.836Z,93.41
2022-11-27T05:12:37.664Z,94.06
2022-11-27T05:15:04.982Z,92.68
2022-11-27T05:17:32.016Z,92.85
2022-11-27T05:19:58.764Z,93.55
2022-11-27T05:22:25.538Z,92.68
2022-11-27T05:24:52.317Z,93.12
2022-11-27T05:27:19.123Z,92.72
2022-11-27T05:29:45.930Z,93.44
2022-11-27T05:32:12.778Z,92.85
2022-11-27T05:34:39.763Z,92.56
2022-11-27T05:37:06.948Z,92.25
2022-11-27T05:39:33.693Z,92.35
2022-11-27T05:42:00.495Z,94.05
2022-11-27T05:44:27.470Z,94.61
2022-11-27T05:46:54.342Z,94.29
2022-11-27T05:49:21.251Z,92.61
2022-11-27T05:51:51.203Z,93.48
2022-11-27T05:54:18.949Z,93.79
2022-11-27T05:56:45.900Z,96.69
2022-11-27T05:59:12.804Z,98.08
2022-11-27T06:01:39.824Z,97.55
2022-11-27T06:04:06.700Z,97.99
2022-11-27T06:06:33.522Z,98.33
2022-11-27T06:09:00.791Z,95.55
2022-11-27T06:11:27.944Z,94.91
2022-11-27T06:13:54.653Z,94.80
2022-11-27T06:16:24.358Z,94.42
2022-11-27T06:18:55.946Z,94.21
2022-11-27T06:21:24.339Z,94.51
2022-11-27T06:23:54.933Z,93.91
2022-11-27T06:26:30.338Z,94.07
2022-11-27T06:28:59.295Z,95.00
2022-11-27T06:31:29.543Z,95.17
2022-11-27T06:33:57.708Z,95.39
2022-11-27T06:36:28.768Z,96.03
2022-11-27T06:38:55.921Z,97.21
2022-11-27T06:41:24.137Z,98.80
2022-11-27T06:43:51.765Z,99.69
2022-11-27T06:46:20.755Z,99.31
2022-11-27T06:48:50.583Z,99.85
2022-11-27T06:51:20.677Z,99.14
2022-11-27T06:53:47.706Z,97.20
2022-11-27T06:56:16.780Z,97.41
2022-11-27T06:58:44.034Z,96.34
2022-11-27T07:01:16.367Z,96.85
2022-11-27T07:03:44.360Z,96.42
2022-11-27T07:06:13.670Z,96.94
2022-11-27T07:08:41.183Z,97.10
2022-11-27T07:11:18.002Z,98.25
2022-11-27T07:13:46.511Z,97.64
2022-11-27T07:16:14.313Z,98.02
2022-11-27T07:18:55.451Z,98.54
2022-11-27T07:21:22.303Z,98.99
2022-11-27T07:23:49.331Z,99.06
2022-11-27T07:26:25.476Z,99.27
2022-11-27T07:28:52.455Z,99.16
2022-11-27T07:31:21.748Z,99.50
2022-11-27T07:33:49.209Z,98.74
2022-11-27T07:36:18.782Z,98.31
2022-11-27T07:38:46.678Z,98.61
2022-11-27T07:41:14.141Z,98.93
2022-11-27T07:43:42.176Z,98.29
2022-11-27T07:46:13.123Z,97.92
2022-11-27T07:48:40.214Z,98.72
2022-11-27T07:51:09.588Z,100.00
2022-11-27T07:53:37.839Z,100.00
2022-11-27T07:56:05.965Z,100.00
2022-11-27T07:58:33.247Z,100.00
2022-11-27T08:01:00.306Z,100.00
2022-11-27T08:03:27.459Z,100.00
2022-11-27T08:05:54.257Z,100.00
2022-11-27T08:08:21.103Z,100.00
2022-11-27T08:10:47.903Z,99.46
2022-11-27T08:13:14.746Z,99.57
2022-11-27T08:15:41.589Z,99.81
2022-11-27T08:18:08.700Z,99.49
2022-11-27T08:20:35.389Z,100.00
2022-11-27T08:23:03.177Z,99.46
2022-11-27T08:25:30.775Z,99.47
2022-11-27T08:27:57.801Z,99.57
2022-11-27T08:30:25.224Z,99.65
2022-11-27T08:32:52.046Z,99.60
2022-11-27T08:35:18.964Z,99.25
2022-11-27T08:37:46.064Z,100.00
2022-11-27T08:40:13.022Z,100.00
2022-11-27T08:42:39.810Z,99.88
2022-11-27T08:45:07.043Z,99.34
2022-11-27T08:47:33.828Z,98.59
2022-11-27T08:50:00.686Z,98.15
2022-11-27T08:52:27.465Z,97.54
2022-11-27T08:54:57.736Z,97.78
2022-11-27T08:57:26.216Z,97.91
2022-11-27T08:59:53.760Z,96.73
2022-11-27T09:02:21.293Z,95.88
2022-11-27T09:04:49.299Z,96.13
2022-11-27T09:07:17.220Z,95.60
2022-11-27T09:09:44.498Z,94.34
2022-11-27T09:12:11.303Z,94.23
2022-11-27T09:14:38.420Z,93.96
2022-11-27T09:17:05.297Z,94.07
2022-11-27T09:19:32.126Z,94.03
2022-11-27T09:21:58.896Z,94.37
2022-11-27T09:24:25.791Z,94.79
2022-11-27T09:26:52.502Z,94.60
2022-11-27T09:29:19.545Z,94.57
2022-11-27T09:31:46.339Z,94.76
2022-11-27T09:34:13.186Z,94.28
2022-11-27T09:36:40.069Z,93.96
2022-11-27T09:39:06.876Z,94.00
2022-11-27T09:41:54.789Z,93.87
2022-11-27T09:44:31.629Z,93.64
2022-11-27T09:47:20.210Z,92.71
2022-11-27T09:50:01.581Z,92.59
2022-11-27T09:52:41.699Z,93.03
2022-11-27T09:55:21.212Z,92.59
2022-11-27T09:58:02.462Z,92.82
2022-11-27T10:00:31.058Z,92.91
2022-11-27T10:02:58.659Z,91.95
2022-11-27T10:05:32.417Z,89.97
2022-11-27T10:08:11.788Z,88.69
2022-11-27T10:11:00.237Z,89.06
2022-11-27T10:13:45.275Z,88.19
2022-11-27T10:16:44.354Z,86.53
2022-11-27T10:19:33.417Z,87.91
2022-11-27T10:22:09.965Z,88.72
2022-11-27T10:24:46.236Z,88.32
2022-11-27T10:27:25.675Z,88.16
2022-11-27T10:29:57.630Z,87.67
2022-11-27T10:35:22.600Z,86.91
2022-11-27T10:37:55.570Z,86.86
2022-11-27T10:40:47.995Z,85.94
2022-11-27T10:43:23.091Z,84.81
2022-11-27T10:46:20.971Z,84.49
2022-11-27T10:48:47.861Z,83.38
2022-11-27T10:51:29.291Z,84.06
2022-11-27T10:53:56.467Z,81.19
2022-11-27T10:56:41.882Z,80.75
2022-11-27T10:59:32.839Z,81.58
2022-11-27T11:02:01.525Z,81.24
2022-11-27T11:04:38.081Z,82.56
2022-11-27T11:07:24.185Z,82.55
2022-11-27T11:09:52.664Z,77.98
2022-11-27T11:12:22.113Z,77.55
2022-11-27T11:15:11.891Z,78.72
2022-11-27T11:17:38.675Z,77.87
2022-11-27T11:20:22.018Z,78.90
2022-11-27T11:22:49.571Z,78.40
2022-11-27T11:25:21.755Z,79.27
2022-11-27T11:27:51.117Z,77.36
2022-11-27T11:30:24.701Z,79.02
2022-11-27T11:32:59.688Z,77.51
2022-11-27T11:35:35.391Z,77.58
2022-11-27T11:38:13.198Z,79.23
2022-11-27T11:40:40.511Z,78.57
2022-11-27T11:43:29.163Z,77.63
2022-11-27T11:46:04.761Z,77.34
2022-11-27T11:48:31.660Z,76.15
2022-11-27T11:51:14.795Z,75.80
2022-11-27T11:53:57.523Z,76.54
2022-11-27T11:56:35.253Z,76.17
2022-11-27T11:59:07.863Z,77.03
2022-11-27T12:01:52.830Z,78.06
2022-11-27T12:04:57.437Z,76.66
2022-11-27T12:07:52.611Z,74.06
2022-11-27T12:10:51.234Z,76.56
2022-11-27T12:13:42.265Z,75.95
2022-11-27T12:16:38.460Z,75.11
2022-11-27T12:19:23.656Z,74.67
2022-11-27T12:22:10.656Z,74.25
2022-11-27T12:25:05.224Z,73.92
2022-11-27T12:27:54.006Z,73.69
2022-11-27T12:30:25.489Z,73.59
2022-11-27T12:33:07.866Z,74.34
2022-11-27T12:35:59.652Z,73.75
2022-11-27T12:38:41.800Z,75.33
2022-11-27T12:41:50.069Z,72.94
2022-11-27T12:44:40.684Z,73.49
2022-11-27T12:47:16.097Z,73.57
2022-11-27T12:49:50.942Z,73.46
2022-11-27T12:52:22.882Z,74.74
2022-11-27T12:55:02.375Z,72.12
2022-11-27T12:57:47.345Z,73.87
2022-11-27T13:00:21.545Z,75.04
2022-11-27T13:03:01.153Z,74.52
2022-11-27T13:05:34.793Z,75.63
2022-11-27T13:08:12.635Z,75.76
2022-11-27T13:10:54.653Z,75.47
2022-11-27T13:13:32.632Z,75.88
2022-11-27T13:16:43.018Z,75.58
2022-11-27T13:20:00.990Z,76.06
2022-11-27T13:22:34.025Z,75.50
2022-11-27T13:25:02.301Z,75.28
2022-11-27T13:27:32.827Z,75.70
2022-11-27T13:30:01.791Z,75.43
2022-11-27T13:32:53.569Z,75.58
2022-11-27T13:35:28.702Z,73.85
2022-11-27T13:38:25.869Z,75.59
2022-11-27T13:40:55.600Z,75.23
2022-11-27T13:43:28.228Z,75.69
2022-11-27T13:46:08.082Z,75.54
2022-11-27T13:48:48.230Z,75.22
2022-11-27T13:51:25.460Z,75.14
2022-11-27T13:53:52.360Z,72.46
2022-11-27T13:56:29.834Z,74.46
2022-11-27T13:58:57.001Z,74.69
2022-11-27T14:01:25.868Z,73.63
2022-11-27T14:03:52.843Z,74.39
2022-11-27T14:06:30.851Z,73.47
2022-11-27T14:09:03.164Z,72.33
2022-11-27T14:11:47.179Z,72.78
2022-11-27T14:14:16.486Z,73.74
2022-11-27T14:16:55.306Z,73.96
2022-11-27T14:19:33.269Z,73.70
2022-11-27T14:22:02.519Z,73.58
2022-11-27T14:24:41.802Z,74.38
2022-11-27T14:27:27.317Z,74.83
2022-11-27T14:29:54.312Z,74.90
2022-11-27T14:32:21.633Z,74.68
2022-11-27T14:34:48.863Z,74.81
2022-11-27T14:37:27.776Z,75.09
2022-11-27T14:39:55.603Z,73.52
2022-11-27T14:42:28.896Z,74.00
2022-11-27T14:45:11.433Z,73.85
2022-11-27T14:47:47.753Z,74.71
2022-11-27T14:50:15.500Z,74.70
2022-11-27T14:52:46.231Z,75.48
2022-11-27T14:55:16.572Z,75.54
2022-11-27T14:57:46.086Z,75.81
2022-11-27T15:00:18.882Z,76.09
2022-11-27T15:02:48.851Z,76.13
2022-11-27T15:05:20.552Z,76.20
2022-11-27T15:07:50.960Z,76.50
2022-11-27T15:10:34.954Z,76.74
2022-11-27T15:13:03.599Z,76.50
2022-11-27T15:15:37.203Z,77.02
2022-11-27T15:18:07.633Z,76.95
2022-11-27T15:20:42.583Z,77.21
2022-11-27T15:23:26.356Z,76.97
2022-11-27T15:26:13.854Z,77.44
2022-11-27T15:28:50.229Z,77.03
2022-11-27T15:31:34.263Z,77.17
2022-11-27T15:34:16.006Z,77.16
2022-11-27T15:36:45.596Z,77.01
2022-11-27T15:39:23.340Z,77.33
2022-11-27T15:41:59.377Z,77.80
2022-11-27T15:44:29.474Z,77.05
2022-11-27T15:46:58.209Z,77.44
2022-11-27T15:49:26.162Z,78.16
2022-11-27T15:51:54.718Z,78.12
2022-11-27T15:54:23.050Z,78.50
2022-11-27T15:56:50.339Z,78.60
2022-11-27T15:59:17.804Z,78.34
2022-11-27T16:01:45.281Z,78.08
2022-11-27T16:04:12.589Z,76.97
2022-11-27T16:06:40.669Z,77.74
2022-11-27T16:09:07.740Z,77.52
2022-11-27T16:11:35.031Z,78.16
2022-11-27T16:14:03.919Z,77.73
2022-11-27T16:16:31.088Z,79.46
2022-11-27T16:19:02.615Z,79.33
2022-11-27T16:21:30.235Z,79.15
2022-11-27T16:24:06.588Z,80.04
2022-11-27T16:26:34.059Z,79.84
2022-11-27T16:29:01.198Z,79.85
2022-11-27T16:31:28.837Z,80.36
2022-11-27T16:33:56.126Z,80.44
2022-11-27T16:36:25.754Z,80.28
2022-11-27T16:38:53.396Z,80.58
2022-11-27T16:41:23.162Z,81.55
2022-11-27T16:43:54.455Z,81.00
2022-11-27T16:46:24.649Z,82.19
2022-11-27T16:48:52.719Z,81.06
2022-11-27T16:51:29.450Z,81.98
2022-11-27T16:53:59.702Z,81.58
2022-11-27T16:56:28.620Z,82.09
2022-11-27T16:59:02.196Z,82.53
2022-11-27T17:01:35.292Z,81.02
2022-11-27T17:04:07.009Z,82.06
2022-11-27T17:06:37.818Z,82.56
2022-11-27T17:09:07.717Z,83.25
2022-11-27T17:11:37.440Z,82.50
2022-11-27T17:14:07.892Z,82.88
2022-11-27T17:16:37.457Z,83.30
2022-11-27T17:19:04.911Z,82.80
2022-11-27T17:21:35.567Z,83.14
2022-11-27T17:24:15.022Z,83.45
2022-11-27T17:26:46.819Z,83.73
2022-11-27T17:29:17.196Z,83.90
2022-11-27T17:31:45.462Z,84.04
2022-11-27T17:34:14.878Z,84.19
2022-11-27T17:36:43.291Z,84.38
2022-11-27T17:39:15.425Z,84.49
2022-11-27T17:41:44.436Z,84.21
2022-11-27T17:44:15.717Z,84.99
2022-11-27T17:46:43.541Z,84.89
2022-11-27T17:49:11.736Z,84.72
2022-11-27T17:51:39.486Z,84.95
2022-11-27T17:54:11.591Z,85.57
2022-11-27T17:56:39.826Z,85.53
2022-11-27T17:59:10.317Z,86.17
2022-11-27T18:01:40.734Z,85.40
2022-11-27T18:04:08.979Z,85.77
2022-11-27T18:06:38.179Z,85.92
2022-11-27T18:09:06.052Z,85.85
2022-11-27T18:11:34.529Z,85.71
2022-11-27T18:14:02.806Z,85.43
2022-11-27T18:16:37.675Z,85.25
2022-11-27T18:19:08.395Z,85.34
2022-11-27T18:21:37.781Z,85.72
2022-11-27T18:24:24.079Z,86.72
2022-11-27T18:27:11.044Z,86.21
2022-11-27T18:29:43.131Z,86.65
2022-11-27T18:32:12.867Z,86.70
2022-11-27T18:34:42.362Z,86.50
2022-11-27T18:37:12.050Z,86.68
2022-11-27T18:39:40.582Z,86.63
2022-11-27T18:42:08.956Z,86.05
2022-11-27T18:44:44.413Z,86.44
2022-11-27T18:47:14.884Z,86.24
2022-11-27T18:49:45.180Z,87.00
2022-11-27T18:52:15.215Z,87.37
2022-11-27T18:54:43.383Z,87.33
2022-11-27T18:57:12.718Z,87.47
2022-11-27T18:59:44.242Z,87.57
2022-11-27T19:02:11.997Z,88.22
2022-11-27T19:04:40.269Z,88.58
2022-11-27T19:07:08.353Z,87.99
2022-11-27T19:09:36.267Z,87.87
2022-11-27T19:12:04.947Z,89.69
2022-11-27T19:14:33.838Z,90.65
2022-11-27T19:17:03.533Z,90.68
2022-11-27T19:22:19.239Z,92.08
2022-11-27T19:24:47.198Z,92.76
2022-11-27T19:27:16.450Z,93.93
2022-11-27T19:29:46.030Z,94.84
2022-11-27T19:32:16.890Z,95.06
2022-11-27T19:34:44.867Z,95.76
2022-11-27T19:37:12.812Z,95.26
2022-11-27T19:39:40.992Z,96.19
2022-11-27T19:42:09.495Z,96.83
2022-11-27T19:44:38.171Z,96.85
2022-11-27T19:47:06.054Z,96.44
2022-11-27T19:49:33.431Z,97.65
2022-11-27T19:52:04.604Z,97.77
2022-11-27T19:54:33.901Z,98.26
2022-11-27T19:57:03.626Z,99.00
2022-11-27T19:59:31.716Z,98.44
2022-11-27T20:01:59.352Z,99.18
2022-11-27T20:04:29.296Z,98.73
2022-11-27T20:06:58.086Z,98.63
2022-11-27T20:09:26.026Z,98.99
2022-11-27T20:11:54.228Z,98.56
2022-11-27T20:14:23.078Z,98.76
2022-11-27T20:16:51.329Z,98.71
2022-11-27T20:19:18.867Z,99.06
2022-11-27T20:21:51.249Z,98.78
2022-11-27T20:24:20.864Z,98.85
2022-11-27T20:26:52.705Z,98.25
2022-11-27T20:29:21.506Z,97.77
2022-11-27T20:31:49.187Z,98.05
2022-11-27T20:34:21.958Z,98.92
2022-11-27T20:36:50.543Z,98.83
2022-11-27T20:39:21.755Z,98.68
2022-11-27T20:41:52.742Z,97.76
2022-11-27T20:44:21.870Z,98.16
2022-11-27T20:46:53.536Z,97.59
2022-11-27T20:49:21.861Z,98.01
2022-11-27T20:51:50.060Z,98.02
2022-11-27T20:54:20.406Z,98.19
2022-11-27T20:56:51.333Z,98.69
2022-11-27T20:59:19.996Z,98.41
2022-11-27T21:01:47.934Z,99.25
2022-11-27T21:04:22.684Z,98.98
2022-11-27T21:06:51.805Z,98.60
2022-11-27T21:09:20.837Z,98.98
2022-11-27T21:11:48.661Z,98.90
2022-11-27T21:14:17.544Z,98.84
2022-11-27T21:16:47.766Z,99.25
2022-11-27T21:19:21.151Z,99.18
2022-11-27T21:21:51.756Z,99.14
2022-11-27T21:24:20.366Z,98.54
2022-11-27T21:26:48.617Z,98.99
2022-11-27T21:29:16.057Z,99.16
2022-11-27T21:31:46.781Z,99.31
2022-11-27T21:34:16.608Z,99.64
2022-11-27T21:36:44.496Z,99.18
2022-11-27T21:39:12.784Z,98.94
2022-11-27T21:41:41.090Z,99.39
2022-11-27T21:44:07.925Z,99.11
2022-11-27T21:46:35.119Z,99.94
2022-11-27T21:49:05.710Z,99.55
2022-11-27T21:51:32.601Z,99.12
2022-11-27T21:54:10.612Z,99.50
2022-11-27T21:56:38.448Z,99.52
2022-11-27T21:59:06.782Z,99.24
2022-11-27T22:01:35.597Z,99.87
2022-11-27T22:04:02.499Z,99.72
2022-11-27T22:06:35.422Z,99.91
2022-11-27T22:09:13.409Z,99.79
2022-11-27T22:11:42.393Z,99.51
2022-11-27T22:14:09.196Z,99.66
2022-11-27T22:16:44.366Z,99.42
2022-11-27T22:19:12.502Z,99.53
2022-11-27T22:21:40.069Z,99.32
2022-11-27T22:24:07.652Z,99.51
2022-11-27T22:26:34.533Z,99.15
2022-11-27T22:29:07.087Z,98.99
2022-11-27T22:31:41.596Z,99.25
2022-11-27T22:34:11.663Z,99.36
2022-11-27T22:36:40.510Z,99.93
2022-11-27T22:39:08.517Z,99.77
2022-11-27T22:41:38.353Z,100.00
2022-11-27T22:44:14.970Z,99.87
2022-11-27T22:46:45.539Z,99.70
2022-11-27T22:49:21.618Z,99.72
2022-11-27T22:51:53.436Z,99.45
2022-11-27T22:54:23.170Z,99.68
2022-11-27T22:56:50.869Z,99.47
2022-11-27T22:59:34.526Z,99.55
2022-11-27T23:02:06.681Z,99.54
2022-11-27T23:04:35.150Z,99.45
2022-11-27T23:07:04.620Z,99.69
2022-11-27T23:09:32.829Z,99.82
2022-11-27T23:11:59.952Z,99.26
2022-11-27T23:14:27.524Z,99.60
2022-11-27T23:16:54.376Z,99.15
2022-11-27T23:19:21.284Z,99.77
2022-11-27T23:21:48.170Z,100.00
2022-11-27T23:24:15.373Z,100.00
2022-11-27T23:26:43.571Z,100.00
2022-11-27T23:29:10.372Z,99.32
2022-11-27T23:31:38.152Z,99.91
2022-11-27T23:34:08.722Z,99.80
2022-11-27T23:36:36.868Z,100.00
2022-11-27T23:39:06.892Z,100.00
2022-11-27T23:41:34.539Z,100.00
2022-11-27T23:44:01.403Z,100.00
2022-11-27T23:46:30.139Z,100.00
2022-11-27T23:48:58.789Z,100.00
2022-11-27T23:51:28.742Z,100.00
2022-11-27T23:53:55.854Z,99.65
2022-11-27T23:56:25.134Z,100.00
2022-11-27T23:58:53.442Z,100.00
